Time;durP1;ratioP1;P1;durP2;ratioP2;P2;SDS_P1;SDS_P2;PMS_P1;PMS_P2;Temp;Humidity;BMP_temperature;BMP_pressure;BME280_temperature;BME280_humidity;BME280_pressure;Samples;Min_cycle;Max_cycle;Signal;HPM_P1;HPM_P2
2020/12/01 00:00:18;;;;;;;60.33;20.95;;;5.60;84.60;;;;;;5106971;28;20031;-59
2020/12/01 00:02:43;;;;;;;58.70;21.70;;;5.60;84.50;;;;;;5070930;28;20024;-57
2020/12/01 00:05:10;;;;;;;52.90;20.85;;;5.60;84.60;;;;;;5089209;28;20111;-57
2020/12/01 00:07:35;;;;;;;58.00;20.83;;;5.50;84.50;;;;;;5075802;28;20327;-57
2020/12/01 00:10:01;;;;;;;54.85;20.35;;;5.50;84.50;;;;;;5106770;28;20027;-58
2020/12/01 00:12:26;;;;;;;63.15;20.60;;;5.50;84.70;;;;;;5105232;28;20024;-58
2020/12/01 00:14:52;;;;;;;60.50;20.30;;;5.60;84.70;;;;;;5089785;28;20027;-56
2020/12/01 00:17:17;;;;;;;48.50;19.42;;;5.50;84.60;;;;;;5108244;28;20020;-58
2020/12/01 00:19:43;;;;;;;61.90;20.67;;;5.50;84.70;;;;;;5101108;28;20487;-59
2020/12/01 00:22:08;;;;;;;52.55;20.52;;;5.50;84.60;;;;;;5104940;28;20028;-57
2020/12/01 00:24:34;;;;;;;59.90;20.95;;;5.50;84.70;;;;;;5096060;28;20067;-56
2020/12/01 00:26:59;;;;;;;55.30;20.55;;;5.50;84.70;;;;;;5105700;28;20071;-58
2020/12/01 00:29:25;;;;;;;52.40;19.80;;;5.50;84.70;;;;;;5090078;28;20095;-56
2020/12/01 00:31:50;;;;;;;43.05;18.65;;;5.50;84.70;;;;;;5104903;28;20126;-56
2020/12/01 00:34:16;;;;;;;51.20;19.05;;;5.50;84.70;;;;;;5091234;28;20090;-57
2020/12/01 00:36:41;;;;;;;51.80;19.77;;;5.50;84.50;;;;;;5089434;28;20054;-59
2020/12/01 00:39:08;;;;;;;55.00;20.52;;;5.50;84.60;;;;;;5088647;28;20034;-57
2020/12/01 00:41:34;;;;;;;46.22;20.15;;;5.40;84.60;;;;;;5072067;28;20028;-59
2020/12/01 00:44:00;;;;;;;50.67;20.20;;;5.40;84.50;;;;;;5091470;28;20034;-56
2020/12/01 00:46:27;;;;;;;46.83;19.77;;;5.40;84.70;;;;;;5057703;28;20039;-57
2020/12/01 00:48:52;;;;;;;47.28;18.67;;;5.40;84.60;;;;;;5104498;28;20024;-56
2020/12/01 00:51:18;;;;;;;49.08;20.35;;;5.40;84.80;;;;;;5098915;28;20047;-58
2020/12/01 00:53:43;;;;;;;51.97;19.75;;;5.40;84.70;;;;;;5080640;28;20059;-57
2020/12/01 00:56:09;;;;;;;44.90;19.15;;;5.40;84.60;;;;;;5112768;28;20044;-57
2020/12/01 00:58:34;;;;;;;51.42;19.20;;;5.40;84.60;;;;;;5109935;28;20039;-57
2020/12/01 01:01:00;;;;;;;52.45;20.70;;;5.40;84.70;;;;;;5087895;28;20492;-57
2020/12/01 01:03:25;;;;;;;42.67;17.45;;;5.40;84.70;;;;;;5094348;28;20038;-58
2020/12/01 01:05:51;;;;;;;46.88;19.77;;;5.40;84.80;;;;;;5108491;28;20024;-56
2020/12/01 01:08:16;;;;;;;42.83;18.45;;;5.30;84.70;;;;;;5059211;28;20032;-56
2020/12/01 01:10:42;;;;;;;41.25;18.05;;;5.40;84.80;;;;;;5109547;28;20467;-58
2020/12/01 01:13:07;;;;;;;39.17;18.33;;;5.40;84.80;;;;;;5109658;28;20043;-57
2020/12/01 01:15:34;;;;;;;56.45;19.13;;;5.30;84.70;;;;;;5087565;28;20063;-57
2020/12/01 01:18:00;;;;;;;44.25;18.92;;;5.30;84.70;;;;;;5091550;28;20473;-58
2020/12/01 01:20:26;;;;;;;39.75;19.30;;;5.30;84.80;;;;;;5070251;28;20398;-58
2020/12/01 01:22:51;;;;;;;43.38;20.02;;;5.30;84.70;;;;;;5108889;28;20443;-58
2020/12/01 01:25:17;;;;;;;44.40;18.50;;;5.30;84.70;;;;;;5108226;28;20093;-58
2020/12/01 01:27:46;;;;;;;41.42;17.27;;;5.30;84.80;;;;;;5090332;28;20112;-59
2020/12/01 01:30:16;;;;;;;42.53;18.63;;;5.30;84.70;;;;;;5088999;28;20031;-57
2020/12/01 01:32:42;;;;;;;44.03;18.80;;;5.30;84.70;;;;;;5109879;28;20131;-59
2020/12/01 01:35:07;;;;;;;57.88;20.23;;;5.30;84.80;;;;;;5096769;28;20098;-57
2020/12/01 01:37:33;;;;;;;42.40;17.88;;;5.30;84.70;;;;;;5109675;28;20043;-56
2020/12/01 01:39:59;;;;;;;48.08;19.20;;;5.30;84.70;;;;;;5108554;28;20477;-57
2020/12/01 01:42:24;;;;;;;44.75;18.65;;;5.30;84.80;;;;;;5100122;28;20024;-57
2020/12/01 01:44:50;;;;;;;46.08;18.92;;;5.30;84.80;;;;;;5097468;28;20027;-59
2020/12/01 01:47:19;;;;;;;36.53;17.38;;;5.30;84.80;;;;;;5108172;28;20073;-58
2020/12/01 01:49:44;;;;;;;44.33;19.10;;;5.20;84.70;;;;;;5097525;28;20502;-57
2020/12/01 01:52:16;;;;;;;38.80;17.67;;;5.30;84.80;;;;;;5095024;28;20209;-58
2020/12/01 01:54:42;;;;;;;44.17;19.98;;;5.20;84.80;;;;;;5050540;28;20467;-59
2020/12/01 01:57:08;;;;;;;39.50;17.83;;;5.20;84.70;;;;;;5093206;28;20036;-58
2020/12/01 01:59:33;;;;;;;38.35;18.02;;;5.20;84.80;;;;;;5068881;28;20039;-57
2020/12/01 02:01:59;;;;;;;36.92;17.65;;;5.30;84.90;;;;;;5091016;28;20055;-56
2020/12/01 02:04:25;;;;;;;39.97;18.55;;;5.20;84.80;;;;;;5073182;28;20040;-57
2020/12/01 02:06:52;;;;;;;43.25;18.35;;;5.20;84.90;;;;;;5057552;28;20076;-58
2020/12/01 02:09:24;;;;;;;34.25;17.60;;;5.20;84.90;;;;;;5088611;28;20032;-58
2020/12/01 02:11:49;;;;;;;33.97;17.85;;;5.20;84.90;;;;;;5079663;28;20084;-59
2020/12/01 02:14:28;;;;;;;34.70;17.15;;;5.20;84.90;;;;;;5068252;28;20019;-57
2020/12/01 02:17:33;;;;;;;33.58;17.63;;;5.20;84.90;;;;;;5090545;28;20517;-57
2020/12/01 02:20:10;;;;;;;45.50;18.45;;;5.20;84.90;;;;;;5018111;28;20499;-56
2020/12/01 02:22:35;;;;;;;36.53;16.67;;;5.20;84.90;;;;;;5015344;28;20037;-57
2020/12/01 02:25:01;;;;;;;45.30;18.63;;;5.20;84.90;;;;;;5077393;28;20047;-56
2020/12/01 02:27:27;;;;;;;34.30;17.40;;;5.20;85.00;;;;;;5110429;28;20032;-58
2020/12/01 02:29:54;;;;;;;34.78;17.20;;;5.20;84.90;;;;;;5088085;28;20351;-59
2020/12/01 02:32:22;;;;;;;39.70;17.42;;;5.20;84.90;;;;;;5056808;28;20042;-57
2020/12/01 02:34:47;;;;;;;42.03;16.77;;;5.20;85.00;;;;;;5074639;28;20575;-58
2020/12/01 02:37:17;;;;;;;34.53;17.55;;;5.10;85.00;;;;;;5089124;28;20099;-58
2020/12/01 02:39:43;;;;;;;35.38;19.02;;;5.20;85.00;;;;;;5110025;28;20111;-59
2020/12/01 02:42:12;;;;;;;42.90;17.88;;;5.20;85.00;;;;;;5090317;28;20106;-56
2020/12/01 02:44:38;;;;;;;31.08;17.63;;;5.20;85.00;;;;;;5073077;28;20032;-56
2020/12/01 02:47:04;;;;;;;35.63;17.05;;;5.20;85.00;;;;;;5110181;28;20536;-56
2020/12/01 02:49:31;;;;;;;38.22;18.30;;;5.10;85.00;;;;;;5066603;28;20046;-57
2020/12/01 02:51:56;;;;;;;31.15;16.42;;;5.20;85.00;;;;;;5087658;28;20047;-56
2020/12/01 02:54:22;;;;;;;35.33;17.38;;;5.10;85.00;;;;;;5102957;28;20020;-57
2020/12/01 02:56:47;;;;;;;37.85;17.98;;;5.10;85.00;;;;;;5088191;28;20536;-58
2020/12/01 02:59:13;;;;;;;37.03;16.45;;;5.10;85.10;;;;;;5091800;28;20020;-57
2020/12/01 03:01:39;;;;;;;31.10;16.48;;;5.10;85.10;;;;;;5073055;28;20472;-57
2020/12/01 03:04:04;;;;;;;30.15;16.70;;;5.10;85.10;;;;;;5089476;28;20031;-58
2020/12/01 03:06:30;;;;;;;32.70;17.08;;;5.10;85.20;;;;;;5108781;28;20055;-58
2020/12/01 03:08:55;;;;;;;37.33;17.20;;;5.10;85.20;;;;;;5088489;28;20070;-58
2020/12/01 03:11:21;;;;;;;31.40;17.45;;;5.10;85.20;;;;;;5107012;28;20147;-60
2020/12/01 03:13:46;;;;;;;25.92;16.80;;;5.10;85.30;;;;;;5088523;28;20491;-58
2020/12/01 03:16:12;;;;;;;34.15;17.70;;;5.10;85.30;;;;;;5107361;28;20036;-58
2020/12/01 03:18:39;;;;;;;29.35;17.08;;;5.10;85.40;;;;;;5072827;28;20024;-59
2020/12/01 03:21:05;;;;;;;27.35;16.67;;;5.00;85.30;;;;;;5089524;28;20023;-58
2020/12/01 03:23:31;;;;;;;32.13;17.27;;;5.10;85.40;;;;;;5087590;28;20360;-59
2020/12/01 03:25:57;;;;;;;32.47;16.85;;;5.00;85.40;;;;;;5106920;28;20490;-59
2020/12/01 03:28:22;;;;;;;33.08;17.33;;;5.10;85.50;;;;;;5076406;28;20243;-59
2020/12/01 03:30:48;;;;;;;32.30;16.83;;;5.00;85.70;;;;;;5088278;28;20109;-59
2020/12/01 03:33:13;;;;;;;33.25;16.60;;;5.00;85.60;;;;;;5109682;28;20046;-58
2020/12/01 03:35:39;;;;;;;32.20;16.65;;;5.00;85.70;;;;;;5106608;28;20126;-58
2020/12/01 03:38:04;;;;;;;33.00;16.58;;;5.00;86.40;;;;;;5108887;28;20099;-59
2020/12/01 03:40:30;;;;;;;25.58;15.80;;;5.00;85.90;;;;;;5089260;28;20024;-59
2020/12/01 03:42:56;;;;;;;31.52;17.80;;;5.00;85.90;;;;;;5091523;28;20023;-58
2020/12/01 03:45:21;;;;;;;26.73;16.65;;;5.00;86.00;;;;;;5107434;28;20024;-57
2020/12/01 03:47:47;;;;;;;28.85;16.20;;;5.00;85.90;;;;;;5104106;28;20102;-58
2020/12/01 03:50:13;;;;;;;26.17;15.70;;;5.00;86.00;;;;;;5072870;28;20036;-58
2020/12/01 03:52:38;;;;;;;33.25;16.63;;;5.00;86.00;;;;;;5090250;28;20053;-58
2020/12/01 03:55:04;;;;;;;24.73;16.40;;;5.00;86.10;;;;;;5098813;28;20036;-57
2020/12/01 03:57:40;;;;;;;27.58;15.98;;;4.90;86.00;;;;;;5085323;28;20543;-59
2020/12/01 04:00:06;;;;;;;27.45;16.30;;;5.00;86.10;;;;;;5104543;28;20035;-58
2020/12/01 04:02:31;;;;;;;26.48;16.55;;;5.00;86.10;;;;;;5087193;28;20039;-58
2020/12/01 04:04:57;;;;;;;27.88;16.75;;;4.90;86.10;;;;;;5067067;28;20027;-57
2020/12/01 04:07:23;;;;;;;27.25;15.95;;;5.00;86.10;;;;;;5082410;28;20030;-57
2020/12/01 04:09:48;;;;;;;27.70;16.08;;;4.90;86.10;;;;;;5068936;28;20031;-58
2020/12/01 04:12:14;;;;;;;25.75;16.10;;;4.90;86.10;;;;;;5089465;28;20096;-58
2020/12/01 04:14:39;;;;;;;30.27;16.05;;;4.90;86.20;;;;;;5082935;28;20066;-58
2020/12/01 04:17:05;;;;;;;24.60;16.00;;;5.00;86.20;;;;;;5087774;28;20020;-57
2020/12/01 04:19:30;;;;;;;24.02;15.38;;;4.90;86.20;;;;;;5066817;28;20032;-57
2020/12/01 04:21:56;;;;;;;23.48;15.10;;;4.90;86.20;;;;;;5089357;28;20024;-59
2020/12/01 04:24:21;;;;;;;31.95;16.10;;;4.90;86.10;;;;;;5088818;28;20074;-58
2020/12/01 04:26:47;;;;;;;33.80;16.08;;;4.90;86.10;;;;;;5106063;28;20029;-58
2020/12/01 04:29:12;;;;;;;29.08;14.55;;;4.90;86.20;;;;;;5100441;28;20036;-58
2020/12/01 04:31:38;;;;;;;35.55;15.57;;;4.90;86.20;;;;;;5085386;28;20535;-58
2020/12/01 04:34:03;;;;;;;35.63;16.63;;;5.00;86.20;;;;;;5108823;28;20039;-58
2020/12/01 04:36:29;;;;;;;35.25;16.27;;;4.90;86.20;;;;;;5107632;28;20057;-58
2020/12/01 04:38:54;;;;;;;46.75;16.88;;;4.90;86.30;;;;;;5090520;28;20078;-57
2020/12/01 04:41:20;;;;;;;43.30;16.45;;;4.90;86.30;;;;;;5081437;28;20581;-57
2020/12/01 04:43:52;;;;;;;33.35;15.40;;;4.90;86.30;;;;;;5089352;28;20028;-58
2020/12/01 04:46:20;;;;;;;35.13;15.77;;;5.00;86.40;;;;;;5086630;28;20032;-58
2020/12/01 04:48:48;;;;;;;39.42;17.60;;;5.00;86.40;;;;;;5070131;28;20493;-57
2020/12/01 04:51:43;;;;;;;46.25;15.23;;;4.90;86.40;;;;;;5071164;28;20131;-57
2020/12/01 04:54:46;;;;;;;31.25;15.52;;;4.90;86.60;;;;;;5085544;28;20051;-58
2020/12/01 04:57:24;;;;;;;35.90;14.55;;;5.00;87.60;;;;;;5107039;28;20019;-58
2020/12/01 05:00:01;;;;;;;35.60;15.40;;;4.90;86.90;;;;;;5103719;28;21324;-58
2020/12/01 05:02:56;;;;;;;36.92;16.33;;;5.00;87.00;;;;;;5089483;28;20399;-58
2020/12/01 05:05:54;;;;;;;28.60;15.07;;;4.90;87.00;;;;;;5098530;28;20023;-57
2020/12/01 05:08:33;;;;;;;34.70;15.98;;;4.90;87.00;;;;;;5088260;28;20101;-57
2020/12/01 05:11:01;;;;;;;29.52;15.10;;;5.00;87.10;;;;;;5075181;28;20426;-57
2020/12/01 05:13:30;;;;;;;36.95;15.02;;;4.90;87.20;;;;;;5088149;28;20023;-57
2020/12/01 05:15:58;;;;;;;32.30;14.95;;;4.90;87.10;;;;;;5090349;28;20035;-57
2020/12/01 05:18:28;;;;;;;25.23;13.48;;;4.90;87.20;;;;;;5107018;28;20019;-58
2020/12/01 05:20:56;;;;;;;33.00;14.95;;;5.00;87.20;;;;;;5085092;28;20112;-58
2020/12/01 05:23:41;;;;;;;30.38;14.10;;;4.90;87.20;;;;;;5070639;28;20032;-58
2020/12/01 05:26:09;;;;;;;28.65;14.15;;;5.00;87.30;;;;;;5094464;28;20033;-57
2020/12/01 05:28:53;;;;;;;25.25;13.10;;;4.90;87.40;;;;;;5073722;28;20460;-57
2020/12/01 05:31:20;;;;;;;28.77;13.30;;;5.00;87.50;;;;;;5085046;28;20537;-58
2020/12/01 05:33:46;;;;;;;26.00;14.07;;;5.00;87.50;;;;;;5090653;28;20387;-58
2020/12/01 05:36:23;;;;;;;31.20;13.82;;;5.00;87.60;;;;;;5086519;28;20042;-58
2020/12/01 05:39:19;;;;;;;24.40;13.32;;;4.90;87.50;;;;;;5090551;28;20400;-58
2020/12/01 05:41:46;;;;;;;23.83;12.82;;;5.00;87.80;;;;;;5101587;27;20419;-58
2020/12/01 05:44:18;;;;;;;26.50;13.07;;;4.90;87.60;;;;;;5095307;28;20028;-58
2020/12/01 05:46:51;;;;;;;20.55;13.25;;;5.00;87.70;;;;;;5090191;28;20043;-57
2020/12/01 05:49:31;;;;;;;23.65;12.77;;;5.00;87.80;;;;;;5090031;28;20080;-57
2020/12/01 05:52:13;;;;;;;26.58;12.90;;;5.00;87.90;;;;;;5077256;28;20393;-58
2020/12/01 05:54:41;;;;;;;31.45;12.38;;;5.00;87.90;;;;;;5094803;28;20106;-57
2020/12/01 05:57:17;;;;;;;23.40;12.40;;;4.90;88.00;;;;;;5078645;28;20450;-57
2020/12/01 06:00:00;;;;;;;22.60;11.73;;;4.90;88.80;;;;;;5094629;28;20046;-57
2020/12/01 06:02:48;;;;;;;18.52;12.43;;;4.90;88.40;;;;;;5095084;28;20032;-57
2020/12/01 06:05:18;;;;;;;21.50;13.25;;;4.90;88.10;;;;;;5064227;28;20048;-57
2020/12/01 06:07:44;;;;;;;28.65;13.20;;;4.90;88.00;;;;;;5096975;28;20031;-57
2020/12/01 06:10:36;;;;;;;28.92;12.73;;;4.90;88.10;;;;;;5090081;28;20097;-57
2020/12/01 06:13:07;;;;;;;25.55;13.15;;;4.90;88.20;;;;;;5081884;28;20188;-57
2020/12/01 06:15:33;;;;;;;27.15;12.55;;;5.00;88.20;;;;;;5090832;28;20055;-57
2020/12/01 06:18:00;;;;;;;20.17;11.85;;;5.00;88.20;;;;;;5074817;28;20028;-57
2020/12/01 06:20:40;;;;;;;21.33;11.45;;;5.00;88.20;;;;;;5087419;28;20111;-58
2020/12/01 06:23:33;;;;;;;21.83;11.55;;;4.90;88.10;;;;;;5072464;28;20028;-57
2020/12/01 06:26:36;;;;;;;26.05;12.70;;;4.90;88.20;;;;;;5107776;28;20051;-58
2020/12/01 06:29:49;;;;;;;20.40;11.82;;;4.90;88.90;;;;;;5083676;28;20070;-57
2020/12/01 06:32:38;;;;;;;21.40;11.55;;;5.00;88.30;;;;;;5034577;28;20053;-57
2020/12/01 06:35:20;;;;;;;25.35;12.02;;;5.00;88.60;;;;;;5105718;28;20032;-57
2020/12/01 06:38:13;;;;;;;19.63;11.50;;;4.90;88.60;;;;;;5090515;28;20031;-57
2020/12/01 06:40:40;;;;;;;27.92;12.18;;;5.00;88.80;;;;;;5104177;27;20376;-57
2020/12/01 06:43:15;;;;;;;20.13;11.35;;;4.90;88.70;;;;;;5108038;27;20031;-57
2020/12/01 06:45:47;;;;;;;33.27;12.50;;;4.90;88.80;;;;;;5087046;28;20034;-57
2020/12/01 06:48:15;;;;;;;24.08;11.75;;;4.90;88.90;;;;;;5090070;28;20277;-57
2020/12/01 06:50:49;;;;;;;21.17;12.15;;;4.90;88.90;;;;;;5072758;28;20168;-57
2020/12/01 06:53:33;;;;;;;19.58;11.00;;;5.00;89.20;;;;;;5072147;28;20570;-57
2020/12/01 06:56:00;;;;;;;32.35;12.23;;;5.00;89.00;;;;;;5078127;28;20023;-58
2020/12/01 06:58:25;;;;;;;20.83;11.05;;;4.90;88.90;;;;;;5090081;28;20024;-57
2020/12/01 07:01:09;;;;;;;19.13;11.13;;;5.00;89.00;;;;;;5105270;28;20037;-57
2020/12/01 07:03:35;;;;;;;19.33;10.52;;;5.00;89.00;;;;;;5103346;28;20494;-57
2020/12/01 07:06:16;;;;;;;21.48;10.40;;;5.10;89.10;;;;;;5068476;28;20055;-57
2020/12/01 07:08:42;;;;;;;17.20;9.95;;;5.00;89.20;;;;;;5101715;28;20088;-57
2020/12/01 07:11:13;;;;;;;19.48;10.18;;;5.00;89.20;;;;;;5103631;28;20023;-57
2020/12/01 07:13:46;;;;;;;18.05;11.13;;;5.00;89.20;;;;;;5104328;28;20028;-57
2020/12/01 07:16:37;;;;;;;20.77;10.23;;;5.00;89.30;;;;;;5069133;28;20032;-57
2020/12/01 07:19:14;;;;;;;19.85;10.55;;;5.00;89.40;;;;;;5082678;28;20027;-57
2020/12/01 07:22:16;;;;;;;18.25;10.32;;;5.00;89.60;;;;;;5069045;28;20096;-57
2020/12/01 07:24:59;;;;;;;18.02;9.90;;;5.00;89.70;;;;;;5086279;28;20050;-57
2020/12/01 07:27:32;;;;;;;50.05;11.23;;;5.00;89.60;;;;;;5089746;28;20031;-57
2020/12/01 07:30:13;;;;;;;19.80;10.48;;;5.00;89.60;;;;;;5085726;28;20377;-57
2020/12/01 07:32:57;;;;;;;24.45;9.68;;;5.00;89.70;;;;;;5063680;28;20581;-57
2020/12/01 07:35:38;;;;;;;18.50;9.73;;;5.00;89.90;;;;;;5062592;28;20111;-57
2020/12/01 07:38:19;;;;;;;18.17;9.60;;;5.00;89.80;;;;;;5081283;28;20027;-57
2020/12/01 07:40:56;;;;;;;25.73;9.32;;;5.00;89.80;;;;;;5063405;28;20403;-57
2020/12/01 07:43:22;;;;;;;21.77;9.45;;;5.00;89.90;;;;;;5049736;28;20025;-57
2020/12/01 07:45:48;;;;;;;15.82;8.93;;;5.00;89.90;;;;;;5047414;28;20089;-58
2020/12/01 07:48:17;;;;;;;18.42;9.77;;;5.00;90.00;;;;;;5060915;28;20159;-57
2020/12/01 07:50:43;;;;;;;16.75;9.23;;;5.00;90.00;;;;;;5064355;28;20036;-57
2020/12/01 07:53:12;;;;;;;16.63;8.80;;;5.00;90.00;;;;;;5044892;28;20052;-57
2020/12/01 07:55:56;;;;;;;20.38;9.90;;;5.00;90.30;;;;;;5062717;28;20043;-58
2020/12/01 07:58:23;;;;;;;14.45;9.30;;;5.00;90.00;;;;;;5066872;28;20047;-57
2020/12/01 08:00:56;;;;;;;16.85;9.82;;;5.00;90.30;;;;;;5083801;28;20025;-57
2020/12/01 08:03:41;;;;;;;14.00;9.30;;;5.00;90.00;;;;;;5070159;28;20504;-58
2020/12/01 08:06:12;;;;;;;16.27;9.25;;;5.00;90.10;;;;;;5064418;28;20052;-57
2020/12/01 08:08:38;;;;;;;17.75;10.30;;;5.00;90.10;;;;;;5047288;28;20052;-58
2020/12/01 08:11:05;;;;;;;12.85;9.18;;;5.00;90.10;;;;;;5059475;28;20051;-57
2020/12/01 08:13:32;;;;;;;17.75;9.02;;;5.00;90.10;;;;;;5037724;28;20029;-57
2020/12/01 08:16:02;;;;;;;17.73;9.18;;;5.00;90.10;;;;;;5058189;28;20078;-57
2020/12/01 08:18:28;;;;;;;13.40;8.63;;;5.00;90.10;;;;;;5058676;28;20372;-58
2020/12/01 08:20:53;;;;;;;14.30;9.43;;;5.00;90.10;;;;;;5055134;28;20032;-58
2020/12/01 08:23:26;;;;;;;20.55;9.00;;;5.00;90.00;;;;;;5056299;28;20024;-57
2020/12/01 08:26:12;;;;;;;15.32;8.55;;;5.00;90.10;;;;;;5056040;28;20051;-57
2020/12/01 08:28:42;;;;;;;18.05;9.60;;;5.00;90.10;;;;;;5047748;28;20468;-58
2020/12/01 08:31:12;;;;;;;12.60;7.53;;;5.00;90.10;;;;;;5049482;28;20559;-58
2020/12/01 08:34:18;;;;;;;13.32;8.27;;;5.00;90.00;;;;;;5045727;28;20021;-57
2020/12/01 08:36:53;;;;;;;18.05;8.63;;;5.00;90.00;;;;;;5077900;28;20048;-57
2020/12/01 08:39:41;;;;;;;11.88;8.30;;;5.00;90.00;;;;;;5063790;28;20496;-57
2020/12/01 08:42:28;;;;;;;19.27;9.07;;;5.00;90.10;;;;;;5064447;28;20040;-58
2020/12/01 08:45:04;;;;;;;18.35;9.40;;;5.00;90.10;;;;;;5064939;28;20043;-57
2020/12/01 08:47:29;;;;;;;19.10;9.07;;;5.00;90.20;;;;;;5064888;28;20059;-57
2020/12/01 08:49:55;;;;;;;17.02;8.70;;;5.10;90.30;;;;;;5061993;28;20040;-57
2020/12/01 08:52:41;;;;;;;16.85;8.77;;;5.10;90.20;;;;;;5062394;28;20048;-57
2020/12/01 08:55:29;;;;;;;21.45;8.88;;;5.10;90.20;;;;;;5063306;28;20064;-58
2020/12/01 08:58:24;;;;;;;21.02;8.43;;;5.10;90.20;;;;;;5058449;28;20079;-57
2020/12/01 09:01:08;;;;;;;18.77;9.13;;;5.10;90.20;;;;;;5054031;28;20029;-57
2020/12/01 09:03:35;;;;;;;23.52;9.20;;;5.10;90.20;;;;;;5060560;28;20021;-57
2020/12/01 09:06:01;;;;;;;26.25;10.00;;;5.10;90.30;;;;;;5062357;28;20107;-57
2020/12/01 09:08:44;;;;;;;24.52;9.13;;;5.10;90.40;;;;;;5063280;28;20020;-57
2020/12/01 09:14:36;;;;;;;17.00;7.95;;;5.20;90.30;;;;;;5050816;28;20060;-57
2020/12/01 09:17:32;;;;;;;39.03;8.95;;;5.20;90.30;;;;;;5056839;28;20731;-56
2020/12/01 09:20:18;;;;;;;29.53;8.73;;;5.20;90.40;;;;;;5063696;28;20474;-57
2020/12/01 09:22:43;;;;;;;25.52;9.15;;;5.20;90.40;;;;;;5061931;28;20021;-57
2020/12/01 09:25:21;;;;;;;21.67;9.63;;;5.20;90.50;;;;;;5048927;28;20032;-57
2020/12/01 09:27:47;;;;;;;32.83;10.00;;;5.30;90.50;;;;;;5065142;28;20064;-57
2020/12/01 09:30:34;;;;;;;29.77;8.85;;;5.30;90.60;;;;;;5063145;28;20107;-58
2020/12/01 09:33:00;;;;;;;36.47;9.38;;;5.30;90.50;;;;;;5063863;28;20029;-57
2020/12/01 09:35:25;;;;;;;25.65;9.30;;;5.30;90.50;;;;;;5065041;28;20133;-57
2020/12/01 09:37:51;;;;;;;31.08;8.57;;;5.30;90.50;;;;;;5051325;28;20025;-61
2020/12/01 09:40:17;;;;;;;34.55;9.38;;;5.30;90.50;;;;;;5066751;28;20107;-58
2020/12/01 09:42:45;;;;;;;24.45;8.43;;;5.40;90.60;;;;;;5034425;28;20016;-55
2020/12/01 09:50:10;;;;;;;24.55;8.68;;;5.40;90.50;;;;;;5062118;28;20526;-56
2020/12/01 09:53:03;;;;;;;36.25;8.13;;;5.40;90.50;;;;;;5061092;28;20036;-56
2020/12/01 09:58:04;;;;;;;32.85;8.77;;;5.40;90.60;;;;;;5041626;28;20453;-56
2020/12/01 10:04:35;;;;;;;37.28;8.98;;;5.40;90.60;;;;;;5026532;28;20372;-55
2020/12/01 10:31:35;;;;;;;20.15;6.63;;;5.50;90.90;;;;;;5065074;28;20021;-55
2020/12/01 10:34:02;;;;;;;41.28;8.40;;;5.50;90.90;;;;;;5063164;28;20059;-56
2020/12/01 10:35:46;;;;;;;24.75;7.95;;;5.50;90.90;;;;;;5064162;28;20033;-55
2020/12/01 10:38:12;;;;;;;34.05;8.23;;;5.60;90.90;;;;;;5039862;28;20043;-55
2020/12/01 10:40:39;;;;;;;46.72;11.18;;;5.60;90.90;;;;;;5064018;28;20037;-55
2020/12/01 10:43:05;;;;;;;40.83;8.75;;;5.50;91.00;;;;;;5040753;28;20029;-55
2020/12/01 10:45:30;;;;;;;30.65;8.18;;;5.60;91.10;;;;;;5059338;28;20040;-55
2020/12/01 10:47:56;;;;;;;30.38;8.18;;;5.60;91.20;;;;;;5070335;28;20599;-56
2020/12/01 10:50:24;;;;;;;36.20;8.00;;;5.60;91.20;;;;;;5047608;28;20032;-56
2020/12/01 10:52:49;;;;;;;27.40;7.57;;;5.70;91.00;;;;;;5057245;28;20130;-55
2020/12/01 10:55:16;;;;;;;26.60;7.70;;;5.70;90.90;;;;;;5070402;28;20112;-55
2020/12/01 10:57:41;;;;;;;40.22;7.70;;;5.60;91.00;;;;;;5064470;28;20044;-56
2020/12/01 11:00:07;;;;;;;29.08;7.60;;;5.60;91.00;;;;;;5068896;28;20024;-55
2020/12/01 11:02:33;;;;;;;30.23;7.47;;;5.60;91.00;;;;;;5066258;28;20115;-56
2020/12/01 11:04:58;;;;;;;41.25;7.72;;;5.70;91.00;;;;;;5047939;28;20143;-55
2020/12/01 11:07:24;;;;;;;40.28;7.60;;;5.70;91.20;;;;;;5066776;28;20056;-55
2020/12/01 11:09:49;;;;;;;51.22;9.32;;;5.70;91.20;;;;;;5065447;28;20021;-58
2020/12/01 11:12:15;;;;;;;135.77;14.02;;;5.70;91.20;;;;;;5067114;28;20032;-56
2020/12/01 11:14:40;;;;;;;54.25;8.55;;;5.70;91.40;;;;;;5047397;28;20423;-56
2020/12/01 11:17:06;;;;;;;37.45;7.75;;;5.70;91.40;;;;;;5061092;28;20029;-56
2020/12/01 11:19:31;;;;;;;44.50;8.75;;;5.70;91.30;;;;;;5068980;28;20574;-57
2020/12/01 11:21:57;;;;;;;55.65;9.18;;;5.70;91.30;;;;;;5061810;28;20119;-57
2020/12/01 11:24:23;;;;;;;51.78;8.27;;;5.80;91.40;;;;;;5070443;28;20142;-59
2020/12/01 11:26:48;;;;;;;45.05;8.00;;;5.70;91.40;;;;;;5041304;28;20032;-57
2020/12/01 11:29:14;;;;;;;44.42;8.30;;;5.80;91.40;;;;;;5070110;28;20059;-56
2020/12/01 11:31:43;;;;;;;49.20;9.38;;;5.80;91.20;;;;;;5075039;28;20048;-56
2020/12/01 11:34:09;;;;;;;45.95;8.73;;;5.80;91.20;;;;;;5086109;28;20606;-56
2020/12/01 11:36:35;;;;;;;33.30;8.68;;;5.90;91.30;;;;;;5081370;28;20107;-56
2020/12/01 11:39:02;;;;;;;37.50;8.27;;;5.90;91.20;;;;;;5072063;28;20497;-56
2020/12/01 11:41:27;;;;;;;44.30;9.13;;;5.90;91.30;;;;;;5051638;28;20108;-56
2020/12/01 11:43:53;;;;;;;51.60;8.48;;;5.90;91.20;;;;;;5085216;28;20479;-56
2020/12/01 11:46:19;;;;;;;33.47;7.95;;;5.90;91.30;;;;;;5068066;28;20047;-56
2020/12/01 11:48:44;;;;;;;25.38;7.63;;;5.90;91.20;;;;;;5085625;28;20051;-57
2020/12/01 11:51:11;;;;;;;57.92;9.50;;;5.90;91.20;;;;;;5088399;28;20031;-56
2020/12/01 11:53:37;;;;;;;60.80;9.23;;;5.90;91.30;;;;;;5083452;28;20605;-57
2020/12/01 11:56:03;;;;;;;45.22;8.70;;;5.90;91.30;;;;;;5068307;28;20042;-58
2020/12/01 11:58:28;;;;;;;50.47;9.38;;;5.90;91.30;;;;;;5091052;28;20110;-56
2020/12/01 12:00:54;;;;;;;40.83;8.43;;;5.90;91.30;;;;;;5081903;28;20562;-56
2020/12/01 12:03:19;;;;;;;38.88;8.35;;;5.90;91.20;;;;;;5085550;28;20494;-57
2020/12/01 12:05:45;;;;;;;39.85;7.95;;;5.90;91.20;;;;;;5079992;28;20039;-57
2020/12/01 12:08:10;;;;;;;56.17;8.60;;;5.90;91.20;;;;;;5083565;28;20122;-58
2020/12/01 12:10:36;;;;;;;69.88;9.38;;;5.90;91.30;;;;;;5076004;28;20038;-57
2020/12/01 12:13:01;;;;;;;33.13;8.02;;;5.90;91.30;;;;;;5081802;28;20085;-57
2020/12/01 12:15:27;;;;;;;32.97;7.72;;;5.90;91.30;;;;;;5066077;28;20067;-57
2020/12/01 12:17:52;;;;;;;41.50;9.75;;;6.00;91.40;;;;;;5081488;28;20112;-57
2020/12/01 12:20:20;;;;;;;40.60;8.85;;;5.90;91.50;;;;;;5069439;28;20139;-56
2020/12/01 12:22:46;;;;;;;38.92;7.65;;;6.00;91.40;;;;;;5073955;28;20020;-57
2020/12/01 12:25:11;;;;;;;46.10;7.70;;;6.00;91.30;;;;;;5061575;28;20034;-57
2020/12/01 12:27:37;;;;;;;32.25;8.98;;;6.00;91.20;;;;;;5083298;28;20035;-57
2020/12/01 12:30:03;;;;;;;28.55;7.10;;;6.00;91.20;;;;;;5076569;28;20070;-56
2020/12/01 12:32:29;;;;;;;41.83;8.30;;;6.00;91.30;;;;;;5078667;28;20044;-56
2020/12/01 12:34:54;;;;;;;41.65;8.48;;;6.00;91.40;;;;;;5080979;28;20059;-56
2020/12/01 12:37:20;;;;;;;41.15;10.00;;;6.00;91.50;;;;;;5077595;28;20033;-57
2020/12/01 12:39:45;;;;;;;46.45;8.32;;;6.00;91.40;;;;;;5079941;28;20090;-56
2020/12/01 12:42:11;;;;;;;37.33;8.05;;;6.00;91.40;;;;;;5063196;28;20031;-57
2020/12/01 12:44:36;;;;;;;36.58;8.23;;;6.00;91.20;;;;;;5080001;28;20028;-56
2020/12/01 12:47:02;;;;;;;33.50;7.45;;;6.10;91.30;;;;;;5076544;28;20091;-56
2020/12/01 12:49:28;;;;;;;45.53;8.00;;;6.00;91.20;;;;;;5071425;28;20293;-56
2020/12/01 12:51:53;;;;;;;39.30;7.65;;;6.00;91.20;;;;;;5072136;28;20036;-56
2020/12/01 12:54:19;;;;;;;34.58;8.30;;;6.00;91.20;;;;;;5089397;28;20495;-57
2020/12/01 12:56:44;;;;;;;34.78;7.70;;;6.00;91.20;;;;;;5055691;28;20038;-57
2020/12/01 12:59:10;;;;;;;48.58;9.05;;;6.00;91.50;;;;;;5078219;28;20135;-57
2020/12/01 13:01:35;;;;;;;32.00;8.00;;;6.00;91.20;;;;;;5076315;28;20189;-58
2020/12/01 13:04:01;;;;;;;49.72;8.98;;;6.00;91.20;;;;;;5076437;28;20547;-57
2020/12/01 13:06:26;;;;;;;63.10;8.07;;;6.00;91.30;;;;;;5063455;28;20088;-56
2020/12/01 13:08:52;;;;;;;44.22;9.07;;;6.00;91.30;;;;;;5081768;28;20332;-57
2020/12/01 13:11:17;;;;;;;37.30;8.23;;;6.00;91.30;;;;;;5066502;28;20053;-57
2020/12/01 13:13:43;;;;;;;35.22;8.88;;;6.00;91.40;;;;;;5080773;28;20157;-56
2020/12/01 13:16:09;;;;;;;45.45;9.45;;;6.00;91.40;;;;;;5069284;28;20128;-58
2020/12/01 13:18:34;;;;;;;30.15;8.18;;;6.10;91.40;;;;;;5081392;28;20028;-58
2020/12/01 13:21:00;;;;;;;36.45;7.13;;;6.10;91.40;;;;;;5046685;28;20498;-57
2020/12/01 13:23:25;;;;;;;38.97;8.73;;;6.10;91.40;;;;;;5083067;28;20047;-57
2020/12/01 13:25:51;;;;;;;42.78;9.05;;;6.00;91.30;;;;;;5088279;28;20032;-58
2020/12/01 13:28:16;;;;;;;43.97;7.95;;;6.00;91.20;;;;;;5071999;28;20060;-57
2020/12/01 13:30:42;;;;;;;32.17;8.23;;;6.00;91.30;;;;;;5085833;28;20039;-56
2020/12/01 13:33:07;;;;;;;36.72;7.60;;;6.00;91.40;;;;;;5072832;28;20461;-58